Time;durP1;ratioP1;P1;durP2;ratioP2;P2;SDS_P1;SDS_P2;PMS_P1;PMS_P2;Temp;Humidity;BMP_temperature;BMP_pressure;BME280_temperature;BME280_humidity;BME280_pressure;Samples;Min_cycle;Max_cycle;Signal;HPM_P1;HPM_P2
2022/04/25 00:02:32;;;;;;;3.88;2.92;;;13.30;43.20;;;10.88;46.70;100298.22;8233409;28;20135;-79
2022/04/25 00:06:34;;;;;;;3.60;2.95;;;13.10;42.70;;;10.66;47.23;100272.63;8221872;28;20561;-79
2022/04/25 00:10:36;;;;;;;4.15;2.67;;;13.20;42.80;;;10.90;46.66;100338.16;8251202;28;20117;-81
2022/04/25 00:14:37;;;;;;;3.22;2.63;;;13.10;42.70;;;10.72;47.04;100310.56;8239753;28;20418;-80
2022/04/25 00:18:40;;;;;;;4.68;2.90;;;13.10;42.90;;;10.66;46.65;100296.13;8234550;28;20498;-80
2022/04/25 00:22:42;;;;;;;3.20;2.40;;;12.80;42.80;;;10.83;47.15;100342.94;8242232;28;20030;-79
2022/04/25 00:26:44;;;;;;;3.25;2.50;;;13.00;43.00;;;10.28;47.28;100252.34;8248156;28;20113;-80
2022/04/25 00:30:47;;;;;;;3.83;2.85;;;13.00;43.40;;;10.51;46.88;100308.38;8245830;28;20394;-79
2022/04/25 00:34:49;;;;;;;3.65;2.55;;;12.90;43.10;;;10.34;46.60;100288.53;8270000;28;20736;-79
2022/04/25 00:38:51;;;;;;;3.45;2.47;;;12.90;43.00;;;10.69;47.24;100350.78;8245132;28;20126;-79
2022/04/25 00:42:52;;;;;;;3.80;2.80;;;12.90;43.00;;;10.49;47.07;100314.63;8255219;28;20506;-80
2022/04/25 00:46:55;;;;;;;3.45;2.78;;;12.80;43.10;;;10.40;47.19;100309.03;8244605;28;20161;-80
2022/04/25 00:50:56;;;;;;;3.70;3.38;;;12.80;43.00;;;10.47;47.23;100329.53;8250778;28;20118;-80
2022/04/25 00:55:00;;;;;;;4.60;3.03;;;12.50;43.00;;;10.02;47.17;100259.16;8228261;28;20161;-79
2022/04/25 00:59:03;;;;;;;3.17;2.38;;;12.70;43.30;;;10.13;47.19;100284.59;8219850;28;20134;-79
2022/04/25 01:03:05;;;;;;;6.35;3.20;;;12.60;43.20;;;10.45;47.77;100345.31;8244586;28;20492;-80
2022/04/25 01:07:06;;;;;;;3.85;3.08;;;12.70;43.10;;;10.14;47.58;100296.69;8245939;28;20037;-80
2022/04/25 01:11:08;;;;;;;3.83;2.97;;;12.60;43.30;;;10.19;47.61;100307.69;8253554;28;20134;-79
2022/04/25 01:15:12;;;;;;;4.07;2.60;;;12.30;43.30;;;10.34;47.40;100338.13;8251717;28;20402;-80
2022/04/25 01:19:14;;;;;;;4.13;2.97;;;12.50;43.50;;;10.27;47.33;100322.91;8253358;28;20122;-80
2022/04/25 01:27:45;;;;;;;4.15;3.17;;;12.50;43.80;;;10.27;47.43;100339.41;8224738;28;20476;-79
2022/04/25 01:31:47;;;;;;;3.05;2.67;;;12.30;43.30;;;10.29;47.40;100347.13;8242356;28;20459;-80
2022/04/25 01:35:48;;;;;;;4.60;3.00;;;12.40;43.40;;;10.28;47.42;100354.13;8238738;28;20758;-80
2022/04/25 01:39:52;;;;;;;4.05;2.65;;;12.50;43.60;;;10.22;47.49;100338.81;8248066;28;20046;-79
2022/04/25 01:43:54;;;;;;;4.38;2.92;;;12.40;43.60;;;10.21;47.77;100342.38;8251076;28;20105;-80
2022/04/25 01:47:56;;;;;;;5.10;3.05;;;12.40;43.60;;;10.06;47.88;100318.03;8224549;28;20126;-80
2022/04/25 01:52:26;;;;;;;4.70;3.63;;;12.40;43.60;;;10.05;47.42;100329.41;8239450;28;20125;-80
2022/04/25 01:56:28;;;;;;;4.07;3.28;;;12.20;43.50;;;10.15;47.77;100340.09;8244763;28;20133;-80
2022/04/25 02:00:29;;;;;;;5.30;3.42;;;12.20;43.50;;;9.68;48.26;100276.78;8248227;28;20113;-80
2022/04/25 02:04:31;;;;;;;4.15;3.47;;;12.40;43.60;;;9.78;47.85;100292.75;8260490;28;20129;-80
2022/04/25 02:08:32;;;;;;;5.30;3.17;;;12.30;43.50;;;10.11;47.82;100354.28;8250646;28;20473;-80
2022/04/25 02:12:34;;;;;;;6.78;3.22;;;12.30;43.60;;;9.89;47.55;100329.47;8251896;28;20545;-80
2022/04/25 02:16:36;;;;;;;3.83;2.97;;;12.10;43.60;;;9.88;48.12;100337.34;8244055;28;20121;-80
2022/04/25 02:20:38;;;;;;;4.72;3.00;;;12.30;43.80;;;10.03;47.68;100373.00;8249082;28;20499;-80
2022/04/25 02:24:40;;;;;;;3.38;2.80;;;12.10;43.90;;;10.01;48.35;100374.84;8247433;28;20445;-79
2022/04/25 02:28:42;;;;;;;5.22;3.50;;;12.00;43.90;;;9.79;48.07;100335.31;8244700;28;20134;-80
2022/04/25 02:32:44;;;;;;;4.85;3.10;;;12.20;43.90;;;9.89;47.68;100352.94;8261773;28;20575;-80
2022/04/25 02:36:45;;;;;;;4.10;2.85;;;12.20;43.90;;;10.06;47.95;100383.25;8249637;28;20472;-79
2022/04/25 02:41:04;;;;;;;3.45;2.75;;;12.20;43.80;;;10.07;48.02;100390.16;8247839;28;20572;-80
2022/04/25 02:45:06;;;;;;;4.38;2.92;;;12.50;44.10;;;10.05;48.34;100381.56;8258157;28;20543;-79
2022/04/25 02:49:08;;;;;;;4.50;3.20;;;12.30;44.00;;;9.78;47.79;100339.69;8265430;28;20125;-80
2022/04/25 02:53:09;;;;;;;3.38;2.60;;;12.20;44.10;;;10.04;48.24;100385.09;8238099;28;20129;-80
2022/04/25 02:57:11;;;;;;;3.40;3.10;;;12.20;43.90;;;9.59;48.08;100319.06;8221326;28;20166;-80
2022/04/25 03:01:12;;;;;;;3.28;2.65;;;12.20;44.00;;;9.84;48.41;100365.41;8250083;28;20468;-79
2022/04/25 03:05:14;;;;;;;4.13;2.63;;;12.20;43.90;;;9.99;48.29;100389.75;8245957;28;20031;-80
2022/04/25 03:09:15;;;;;;;3.33;3.03;;;12.10;43.90;;;9.95;48.59;100390.84;8255961;28;20117;-79
2022/04/25 03:13:18;;;;;;;4.53;2.95;;;12.20;44.00;;;9.81;48.38;100381.22;8198579;28;20137;-80
2022/04/25 03:17:20;;;;;;;4.15;3.10;;;12.20;43.90;;;9.89;48.36;100407.69;8239298;28;20061;-80
2022/04/25 03:21:21;;;;;;;3.08;2.78;;;12.10;43.90;;;9.88;48.79;100410.38;8246896;28;20416;-78
2022/04/25 03:25:23;;;;;;;3.30;2.72;;;12.10;43.90;;;9.71;48.44;100387.88;8250866;28;20138;-79
2022/04/25 03:29:25;;;;;;;5.28;3.05;;;12.00;43.90;;;9.28;48.63;100323.38;8250334;28;20164;-79
2022/04/25 03:33:31;;;;;;;3.65;2.60;;;12.10;43.90;;;9.78;48.81;100417.91;8262927;28;20133;-79
2022/04/25 03:37:34;;;;;;;;;;;12.00;43.90;;;9.62;47.98;100383.22;8252220;28;20125;-79
2022/04/25 03:41:36;;;;;;;2.80;2.28;;;11.80;43.40;;;9.54;48.29;100396.66;8256985;28;19918;-79
2022/04/25 03:45:39;;;;;;;3.75;2.65;;;12.00;43.60;;;9.42;48.58;100392.13;8249567;28;20121;-79
2022/04/25 03:49:41;;;;;;;4.65;3.15;;;11.90;43.70;;;9.12;48.58;100353.81;8244553;28;20113;-79
2022/04/25 03:53:43;;;;;;;3.88;2.72;;;11.90;43.90;;;9.45;48.72;100421.50;8249606;28;20133;-79
2022/04/25 03:57:44;;;;;;;3.80;3.42;;;11.70;43.90;;;9.39;48.48;100418.38;8254221;28;20461;-79
2022/04/25 04:01:46;;;;;;;5.28;3.03;;;11.80;44.00;;;9.28;48.74;100413.75;8258899;28;20487;-79
2022/04/25 04:05:50;;;;;;;5.22;3.05;;;11.70;44.00;;;9.21;48.64;100415.84;8251149;28;20550;-79
2022/04/25 04:09:52;;;;;;;5.80;3.63;;;11.70;44.10;;;9.38;48.76;100459.22;8245996;28;20121;-79
2022/04/25 04:13:53;;;;;;;3.78;3.40;;;11.60;44.00;;;9.14;48.44;100424.91;8255330;28;20060;-79
2022/04/25 04:17:55;;;;;;;5.18;3.72;;;11.60;44.10;;;8.80;48.82;100389.41;8248518;28;20460;-79
2022/04/25 04:21:57;;;;;;;4.45;4.03;;;11.60;44.10;;;9.18;49.09;100462.91;8241187;28;20506;-79
2022/04/25 04:25:59;;;;;;;4.60;3.25;;;11.50;44.60;;;8.60;48.81;100388.72;8239519;28;20138;-79
2022/04/25 04:30:11;;;;;;;6.22;3.88;;;11.50;44.20;;;9.07;49.71;100466.09;8248309;28;20122;-79
2022/04/25 04:34:13;;;;;;;4.40;3.13;;;11.40;44.60;;;8.91;49.17;100464.34;8241365;28;20044;-79
2022/04/25 04:38:15;;;;;;;5.72;4.03;;;11.30;44.40;;;9.00;49.11;100490.78;8223181;28;20121;-79
2022/04/25 04:42:16;;;;;;;7.85;4.15;;;11.30;44.60;;;8.99;49.16;100489.09;8235686;28;20038;-79
2022/04/25 04:46:18;;;;;;;5.47;3.50;;;11.50;44.90;;;8.94;49.19;100491.09;8240379;28;20117;-79
2022/04/25 04:50:19;;;;;;;7.15;4.00;;;11.20;44.80;;;8.93;49.18;100488.56;8258542;28;20128;-79
2022/04/25 04:54:21;;;;;;;6.97;5.47;;;11.30;44.80;;;8.82;49.31;100471.72;8231662;28;20125;-79
2022/04/25 04:58:23;;;;;;;7.93;5.43;;;11.20;44.90;;;8.53;49.41;100426.41;8251650;28;20551;-79
2022/04/25 05:02:24;;;;;;;5.80;5.05;;;11.20;45.00;;;8.96;49.41;100498.81;8253527;28;20056;-79
2022/04/25 05:06:27;;;;;;;6.47;4.88;;;11.30;45.10;;;9.01;49.55;100512.44;8253890;28;20137;-79
2022/04/25 05:10:28;;;;;;;6.85;4.65;;;11.10;45.10;;;8.51;49.67;100448.22;8245596;28;20122;-79
2022/04/25 05:14:30;;;;;;;7.10;4.13;;;11.30;45.10;;;8.60;49.68;100458.16;8247970;28;20462;-78
2022/04/25 05:18:33;;;;;;;5.53;4.10;;;11.10;45.00;;;8.96;49.32;100514.44;8245532;28;20117;-79
2022/04/25 05:22:39;;;;;;;6.80;4.05;;;11.20;45.20;;;8.83;49.72;100491.66;8252467;28;20034;-79
2022/04/25 05:26:41;;;;;;;5.13;4.50;;;11.30;45.30;;;8.64;49.69;100472.69;8244983;28;20113;-78
2022/04/25 05:30:44;;;;;;;7.25;4.47;;;11.00;45.20;;;8.80;49.71;100494.44;8256926;28;20137;-78
2022/04/25 05:34:45;;;;;;;4.95;4.00;;;11.20;45.40;;;9.03;49.90;100547.06;8244016;28;20121;-78
2022/04/25 05:38:47;;;;;;;6.38;5.10;;;11.20;45.50;;;8.85;50.13;100508.03;8240111;28;20142;-78
2022/04/25 05:42:51;;;;;;;4.72;4.20;;;11.30;45.80;;;9.01;50.08;100541.09;8252695;28;20061;-80
2022/04/25 05:46:52;;;;;;;5.25;4.28;;;11.30;45.80;;;9.10;49.85;100558.88;8225671;28;20133;-80
2022/04/25 05:55:14;;;;;;;8.32;4.63;;;11.30;46.00;;;9.25;50.22;100567.63;8237750;28;20129;-80
2022/04/25 05:59:16;;;;;;;6.07;4.28;;;11.40;46.00;;;8.93;50.31;100512.00;8250529;28;20045;-80
2022/04/25 06:03:17;;;;;;;8.05;4.40;;;11.50;45.80;;;9.21;50.19;100556.53;8258879;28;20034;-80
2022/04/25 06:07:19;;;;;;;6.55;5.00;;;11.50;45.80;;;9.36;50.02;100578.34;8247042;28;20114;-76
2022/04/25 06:11:21;;;;;;;6.90;4.70;;;11.60;45.80;;;9.14;50.01;100528.28;8233869;28;20129;-78
2022/04/25 06:15:29;;;;;;;6.22;5.25;;;11.60;45.80;;;8.99;50.44;100503.88;8231819;28;20030;-77
2022/04/25 06:19:31;;;;;;;5.18;4.63;;;11.60;46.10;;;9.50;50.40;100578.47;8218759;28;20427;-78
2022/04/25 06:23:33;;;;;;;6.03;4.28;;;11.70;45.80;;;9.45;50.25;100569.19;8233503;28;20034;-77
2022/04/25 06:27:35;;;;;;;4.35;3.65;;;11.50;45.60;;;9.59;49.83;100589.34;8216076;28;20042;-78
2022/04/25 06:31:36;;;;;;;4.43;4.03;;;11.80;45.70;;;9.59;49.94;100587.56;8250950;28;20138;-79
2022/04/25 06:35:38;;;;;;;5.50;3.97;;;11.80;45.80;;;9.72;50.25;100608.59;8266650;28;20118;-79
2022/04/25 06:39:41;;;;;;;5.43;4.05;;;11.90;45.80;;;9.48;50.39;100563.84;8246082;28;20126;-78
2022/04/25 06:43:42;;;;;;;4.43;3.88;;;11.90;45.80;;;9.80;50.08;100616.84;8253323;28;20038;-78
2022/04/25 06:47:44;;;;;;;4.47;4.07;;;11.90;45.90;;;9.81;50.45;100615.09;8244963;28;20468;-79
2022/04/25 06:51:47;;;;;;;4.68;4.18;;;11.90;46.00;;;9.56;50.38;100574.69;8248515;28;20114;-79
2022/04/25 06:55:49;;;;;;;4.78;3.60;;;12.00;45.80;;;9.81;50.54;100631.56;8261122;28;20125;-78
2022/04/25 06:59:51;;;;;;;4.43;3.22;;;12.00;45.60;;;9.74;50.04;100615.41;8246986;28;20038;-78
2022/04/25 07:03:52;;;;;;;4.93;4.03;;;12.00;45.60;;;9.82;50.18;100624.59;8252967;28;20129;-78
2022/04/25 07:07:54;;;;;;;5.63;4.35;;;12.00;45.70;;;9.78;50.06;100620.47;8255060;28;20128;-78
2022/04/25 07:11:56;;;;;;;4.88;3.25;;;11.90;45.60;;;9.88;50.16;100626.84;8250932;28;20125;-78
2022/04/25 07:15:58;;;;;;;6.32;4.70;;;12.10;45.70;;;9.81;50.64;100615.94;8255011;28;20458;-78
2022/04/25 07:19:59;;;;;;;5.35;3.97;;;12.10;45.70;;;9.95;50.54;100630.84;8230620;28;20137;-78
2022/04/25 07:32:43;;;;;;;4.13;3.50;;;12.00;45.70;;;9.96;50.62;100653.38;8232664;28;20500;-78
2022/04/25 07:36:44;;;;;;;5.78;4.43;;;12.20;45.70;;;9.92;50.64;100655.31;8240180;28;20035;-79
2022/04/25 07:40:46;;;;;;;5.35;4.10;;;12.10;46.00;;;9.91;50.63;100660.59;8225799;28;20038;-77
2022/04/25 07:44:48;;;;;;;8.90;3.85;;;12.20;45.90;;;9.94;50.60;100661.28;8241959;28;20559;-78
2022/04/25 07:48:50;;;;;;;5.05;4.25;;;12.20;45.90;;;9.90;50.55;100653.72;8251132;28;20114;-78
2022/04/25 07:52:52;;;;;;;5.55;4.05;;;12.20;45.80;;;9.79;50.35;100640.41;8243229;28;20191;-78
2022/04/25 07:56:55;;;;;;;6.32;4.30;;;12.20;45.80;;;9.97;50.47;100675.94;8239664;28;20041;-77
2022/04/25 08:00:56;;;;;;;5.07;3.72;;;11.90;45.80;;;9.94;51.18;100666.50;8245258;28;20044;-77
2022/04/25 08:04:58;;;;;;;6.53;3.85;;;12.20;45.70;;;10.04;50.99;100686.88;8239534;28;20039;-78
2022/04/25 08:09:02;;;;;;;5.13;4.07;;;12.00;45.70;;;9.86;50.42;100647.81;8234032;28;20118;-78
2022/04/25 08:21:47;;;;;;;5.05;3.67;;;12.20;46.00;;;10.05;50.39;100673.75;8232074;28;20047;-80
2022/04/25 08:25:49;;;;;;;6.72;4.25;;;12.30;45.80;;;10.23;50.62;100694.56;8239685;28;20137;-80
2022/04/25 08:29:51;;;;;;;4.20;3.30;;;12.30;45.90;;;10.11;50.91;100672.59;8229893;28;20045;-80
2022/04/25 08:33:55;;;;;;;5.80;3.45;;;12.40;45.90;;;10.24;50.98;100693.66;8242455;28;20118;-80
2022/04/25 08:37:57;;;;;;;3.90;3.08;;;12.40;45.90;;;10.08;50.36;100652.72;8240064;28;20113;-80
2022/04/25 08:42:00;;;;;;;4.63;3.97;;;12.40;45.90;;;10.06;50.82;100651.13;8245201;28;20038;-82
2022/04/25 08:46:01;;;;;;;5.82;3.58;;;12.50;46.00;;;10.07;51.26;100645.84;8223676;28;20126;-82
2022/04/25 08:50:03;;;;;;;5.60;3.60;;;12.50;45.90;;;10.40;50.47;100692.75;8228598;28;20243;-81
2022/04/25 08:54:08;;;;;;;4.85;3.75;;;12.60;45.90;;;10.29;50.41;100663.78;8204888;28;20053;-81
2022/04/25 08:58:11;;;;;;;5.50;3.85;;;12.70;46.00;;;10.65;50.86;100719.28;8230879;28;20042;-81
2022/04/25 09:02:13;;;;;;;5.85;3.75;;;12.60;45.90;;;10.69;50.58;100726.84;8228152;28;20054;-81
2022/04/25 09:06:15;;;;;;;4.97;3.95;;;12.70;45.90;;;10.73;50.66;100725.75;8250773;28;20664;-81
2022/04/25 09:10:21;;;;;;;6.00;4.10;;;12.80;45.70;;;10.45;50.68;100671.63;8228107;28;20045;-79
2022/04/25 09:14:23;;;;;;;5.63;4.00;;;12.90;46.00;;;10.55;50.47;100675.38;8233866;28;20053;-79
2022/04/25 09:18:25;;;;;;;7.32;4.32;;;12.90;45.70;;;10.34;51.00;100632.19;8211771;28;20054;-79
2022/04/25 09:22:42;;;;;;;6.07;4.68;;;13.00;45.60;;;11.00;50.60;100725.97;8237484;28;20050;-80
2022/04/25 09:26:44;;;;;;;5.45;3.63;;;12.90;45.80;;;10.94;50.39;100705.41;8229691;28;20045;-79
2022/04/25 09:31:00;;;;;;;4.95;3.47;;;13.10;45.90;;;10.91;50.58;100684.69;8223380;28;20047;-80
2022/04/25 09:35:28;;;;;;;3.57;3.10;;;13.20;46.30;;;11.39;50.66;100752.50;8230294;28;20060;-79
2022/04/25 09:39:30;;;;;;;2.85;2.65;;;13.40;45.80;;;11.32;50.73;100731.13;8229018;28;20531;-80
2022/04/25 09:43:34;;;;;;;4.03;2.97;;;13.40;45.60;;;11.39;50.39;100727.19;8241283;28;20034;-80
2022/04/25 09:47:37;;;;;;;4.75;2.70;;;13.80;45.80;;;11.43;50.27;100715.63;8252551;28;20137;-78
2022/04/25 09:51:57;;;;;;;3.85;2.75;;;13.60;45.70;;;11.76;50.32;100755.56;8240840;28;20430;-78
2022/04/25 09:56:19;;;;;;;2.65;2.35;;;13.70;45.70;;;11.72;50.47;100750.53;8239748;28;20114;-78
2022/04/25 10:00:39;;;;;;;2.47;1.88;;;13.80;45.50;;;11.73;50.42;100726.03;8246415;28;20088;-78
2022/04/25 10:04:40;;;;;;;3.50;1.95;;;13.90;45.40;;;11.89;50.42;100744.31;8229797;28;20037;-79
2022/04/25 10:08:43;;;;;;;2.20;2.00;;;14.00;45.50;;;11.66;50.29;100682.03;8232137;28;20130;-78
2022/04/25 10:12:45;;;;;;;2.47;2.28;;;14.10;45.50;;;11.68;50.37;100659.25;8213950;28;20141;-79
2022/04/25 10:16:47;;;;;;;4.85;2.80;;;14.20;45.50;;;12.39;50.28;100750.84;8233151;28;20501;-78
2022/04/25 10:20:52;;;;;;;3.88;2.30;;;14.30;45.50;;;12.54;50.13;100759.50;8214883;28;20133;-78
2022/04/25 10:24:53;;;;;;;1.90;1.58;;;14.40;45.60;;;12.64;50.07;100778.13;8231541;28;20480;-79
2022/04/25 10:29:08;;;;;;;5.45;2.17;;;14.60;45.50;;;12.75;50.49;100778.28;8232331;28;20041;-78
2022/04/25 10:33:21;;;;;;;1.63;1.48;;;14.70;45.70;;;12.66;50.32;100742.16;8226595;28;20030;-79
2022/04/25 10:37:40;;;;;;;2.30;1.67;;;14.80;45.30;;;12.96;50.06;100764.72;8232569;28;20038;-80
2022/04/25 10:46:05;;;;;;;2.58;1.80;;;15.00;45.00;;;13.05;49.91;100769.38;8237283;28;20500;-79
2022/04/25 10:50:08;;;;;;;6.03;1.88;;;15.10;44.80;;;13.13;50.34;100766.28;8236381;28;20039;-79
2022/04/25 10:54:12;;;;;;;2.38;1.95;;;15.10;44.80;;;13.21;49.95;100774.47;8220555;28;20051;-80
2022/04/25 10:58:15;;;;;;;4.68;1.80;;;15.00;44.60;;;13.33;49.77;100772.84;8237922;28;20030;-79
2022/04/25 11:02:23;;;;;;;2.40;2.00;;;15.30;44.80;;;13.26;49.70;100746.22;8259364;28;20629;-77
2022/04/25 11:06:27;;;;;;;1.40;1.30;;;15.20;44.40;;;13.49;49.67;100773.50;8248005;28;20037;-79
2022/04/25 11:11:13;;;;;;;3.90;1.70;;;15.50;44.50;;;13.65;49.67;100781.22;8249980;28;20138;-78
2022/04/25 11:15:44;;;;;;;2.80;1.60;;;15.50;44.20;;;13.72;49.41;100778.06;8236358;28;20087;-78
2022/04/25 11:19:53;;;;;;;1.80;1.63;;;15.70;44.40;;;13.73;49.36;100777.13;8241709;28;20694;-79
2022/04/25 11:23:57;;;;;;;1.40;1.33;;;15.80;44.40;;;13.90;49.60;100788.25;8236964;28;20031;-80
2022/04/25 11:28:08;;;;;;;2.45;2.25;;;15.80;44.40;;;13.92;49.37;100776.69;8238018;28;20122;-79
2022/04/25 11:32:24;;;;;;;1.58;1.48;;;16.00;44.10;;;14.10;49.10;100816.63;8225386;28;20073;-79
2022/04/25 11:36:26;;;;;;;1.60;1.50;;;16.00;43.80;;;14.02;49.34;100786.59;8224675;28;20046;-79
2022/04/25 11:40:28;;;;;;;2.53;1.80;;;16.20;43.80;;;14.16;49.05;100805.69;8241838;28;20699;-79
2022/04/25 11:44:30;;;;;;;1.90;1.42;;;16.20;43.80;;;14.19;49.21;100814.31;8228360;28;20603;-78
2022/04/25 11:48:32;;;;;;;1.98;1.52;;;16.20;43.60;;;13.80;48.91;100750.44;8222976;28;20042;-79
2022/04/25 11:52:34;;;;;;;2.60;1.52;;;16.30;43.60;;;13.96;48.94;100774.72;8210920;28;20056;-80
2022/04/25 11:56:39;;;;;;;1.70;1.45;;;16.30;43.60;;;14.14;49.08;100777.84;8240651;28;20051;-79
2022/04/25 12:00:48;;;;;;;1.80;1.70;;;16.10;43.40;;;14.35;48.71;100804.41;8230068;28;20049;-80
2022/04/25 12:04:49;;;;;;;2.17;1.48;;;16.40;43.50;;;14.37;48.93;100813.03;8242883;28;20443;-78
2022/04/25 12:17:41;;;;;;;1.33;1.25;;;16.50;43.20;;;14.51;48.89;100815.53;8230871;28;20450;-80
2022/04/25 12:21:47;;;;;;;1.80;1.52;;;16.50;43.10;;;14.55;48.79;100830.16;8256148;28;20048;-79
2022/04/25 12:25:49;;;;;;;1.95;1.45;;;16.60;43.20;;;14.62;48.49;100829.75;8246320;28;20045;-80
2022/04/25 12:30:06;;;;;;;1.67;1.52;;;16.70;42.80;;;14.65;48.29;100827.72;8234341;28;20038;-79
2022/04/25 12:34:09;;;;;;;1.50;1.30;;;16.70;42.70;;;14.44;48.30;100777.50;8237278;28;20066;-80
2022/04/25 12:38:33;;;;;;;1.67;1.58;;;16.70;42.90;;;14.88;48.04;100838.38;8243258;28;20050;-80
2022/04/25 12:42:52;;;;;;;1.75;1.30;;;16.80;42.80;;;14.56;48.42;100770.56;8241113;28;20450;-80
2022/04/25 12:47:04;;;;;;;2.78;1.80;;;17.20;42.90;;;15.00;48.49;100833.09;8249360;28;20471;-80
2022/04/25 12:51:06;;;;;;;2.40;2.13;;;16.90;42.90;;;15.09;48.16;100836.00;8223424;28;20057;-80
2022/04/25 12:55:07;;;;;;;2.80;1.55;;;17.00;42.60;;;15.03;48.00;100816.25;8225587;28;20052;-80
2022/04/25 12:59:09;;;;;;;1.83;1.65;;;17.10;42.70;;;15.25;48.39;100818.16;8232545;28;20075;-80
2022/04/25 13:03:12;;;;;;;1.77;1.67;;;17.20;42.90;;;15.40;48.17;100822.31;8243311;28;20059;-79
2022/04/25 13:07:14;;;;;;;2.97;1.65;;;17.20;42.80;;;15.30;48.24;100792.34;8253598;28;20057;-80
2022/04/25 13:11:16;;;;;;;1.75;1.60;;;17.40;42.70;;;15.34;48.08;100780.66;8239319;28;20041;-80
2022/04/25 13:15:20;;;;;;;1.83;1.73;;;17.40;42.50;;;15.55;47.53;100817.69;8233455;28;20042;-80
2022/04/25 13:19:22;;;;;;;1.92;1.80;;;17.60;42.20;;;15.72;47.52;100824.38;8232354;28;20056;-80
2022/04/25 13:23:24;;;;;;;2.22;1.70;;;17.70;42.40;;;15.49;47.72;100773.41;8239433;28;20042;-80
2022/04/25 13:27:25;;;;;;;1.85;1.75;;;17.90;42.10;;;15.58;47.33;100769.22;8239869;28;20042;-79
2022/04/25 13:31:27;;;;;;;2.03;1.65;;;17.80;42.10;;;16.08;47.24;100823.34;8234136;28;20040;-79
2022/04/25 13:35:29;;;;;;;1.90;1.63;;;17.80;42.20;;;16.22;47.21;100821.44;8228468;28;20045;-81
2022/04/25 13:39:31;;;;;;;3.30;1.70;;;17.90;42.20;;;16.15;47.42;100789.47;8233971;28;20039;-82
2022/04/25 13:43:33;;;;;;;2.10;1.75;;;18.10;41.60;;;16.32;47.01;100802.16;8244670;28;20038;-81
2022/04/25 13:47:35;;;;;;;2.00;1.80;;;18.30;41.40;;;16.48;46.99;100829.97;8222404;28;20046;-80
2022/04/25 13:51:36;;;;;;;2.30;2.13;;;18.40;41.40;;;16.47;46.96;100820.38;8249455;28;20046;-79
2022/04/25 13:55:38;;;;;;;2.15;1.95;;;18.20;41.20;;;16.40;46.64;100803.38;8236491;28;20038;-81
2022/04/25 13:59:39;;;;;;;3.08;2.15;;;18.30;40.90;;;16.54;46.63;100824.22;8239954;28;20602;-81
2022/04/25 14:03:41;;;;;;;1.58;1.48;;;18.50;41.10;;;16.69;46.53;100824.78;8228306;28;20480;-82
2022/04/25 14:07:42;;;;;;;2.92;2.10;;;18.60;41.50;;;16.60;46.17;100806.09;8234249;28;20030;-82
2022/04/25 14:11:44;;;;;;;2.95;1.80;;;18.40;40.70;;;16.29;46.03;100749.72;8223973;28;20052;-82
2022/04/25 14:15:46;;;;;;;1.60;1.50;;;18.70;40.30;;;16.76;46.21;100828.63;8237884;28;20045;-82
2022/04/25 14:19:48;;;;;;;2.63;2.00;;;18.70;40.40;;;16.87;46.10;100844.44;8220305;28;20061;-81
2022/04/25 14:23:49;;;;;;;3.75;1.98;;;18.80;40.40;;;16.64;46.03;100801.44;8249620;28;20049;-81
2022/04/25 14:27:51;;;;;;;1.88;1.67;;;18.80;40.00;;;16.67;45.74;100817.00;8235980;28;20030;-81
2022/04/25 14:31:53;;;;;;;1.42;1.33;;;18.70;40.10;;;16.89;45.91;100841.72;8246735;28;20049;-81
2022/04/25 14:35:54;;;;;;;1.73;1.30;;;18.80;40.20;;;16.93;45.71;100845.75;8245339;28;20046;-81
2022/04/25 14:39:56;;;;;;;1.98;1.33;;;18.80;40.00;;;16.85;45.48;100838.50;8245621;28;20041;-81
2022/04/25 14:43:58;;;;;;;1.85;1.65;;;18.80;39.70;;;16.86;45.63;100841.97;8246844;28;20044;-81
2022/04/25 14:48:00;;;;;;;1.60;1.50;;;18.70;39.80;;;16.85;45.63;100821.78;8245812;28;20039;-81
2022/04/25 14:56:23;;;;;;;3.55;1.58;;;18.90;40.10;;;17.11;45.43;100846.09;8253144;28;20042;-81
2022/04/25 15:00:24;;;;;;;1.63;1.48;;;18.90;40.00;;;17.10;45.47;100847.91;8248073;28;20038;-81
2022/04/25 15:04:26;;;;;;;2.10;1.90;;;18.90;39.90;;;17.08;45.13;100841.91;8242240;28;20042;-81
2022/04/25 15:08:27;;;;;;;1.98;1.50;;;19.00;39.80;;;16.72;45.39;100780.56;8232513;28;20049;-81
2022/04/25 15:12:29;;;;;;;2.67;2.10;;;19.00;39.90;;;17.08;45.07;100847.19;8242202;28;20037;-81
2022/04/25 15:16:33;;;;;;;2.42;2.08;;;19.10;39.10;;;17.06;44.87;100853.53;8250965;28;20037;-81
2022/04/25 15:20:36;;;;;;;1.75;1.63;;;19.00;39.70;;;17.11;45.00;100854.84;8232549;28;20031;-81
2022/04/25 15:24:38;;;;;;;1.77;1.63;;;18.80;39.70;;;17.06;44.95;100849.09;8226463;28;20521;-82
2022/04/25 15:28:40;;;;;;;1.40;1.30;;;19.10;39.50;;;17.14;44.88;100851.94;8225879;28;20053;-80
2022/04/25 15:32:43;;;;;;;1.52;1.42;;;19.00;39.60;;;17.21;44.91;100853.13;8231143;28;20038;-80
2022/04/25 15:36:44;;;;;;;2.28;1.58;;;19.10;39.70;;;17.21;44.74;100839.13;8235781;28;20042;-80
2022/04/25 15:40:50;;;;;;;2.20;2.00;;;19.20;39.30;;;17.28;44.50;100873.75;8226603;28;20069;-80
2022/04/25 15:44:52;;;;;;;1.40;1.30;;;19.20;39.00;;;16.90;44.52;100832.81;8209196;28;20581;-81
2022/04/25 15:48:54;;;;;;;1.65;1.40;;;19.20;39.00;;;16.80;44.32;100827.47;8230309;28;20031;-81
2022/04/25 15:52:55;;;;;;;1.55;1.45;;;19.20;39.00;;;17.12;44.45;100884.69;8243928;28;20046;-81
2022/04/25 16:01:16;;;;;;;1.85;1.70;;;19.00;39.10;;;16.99;44.25;100883.06;8236578;28;20423;-80
2022/04/25 16:05:18;;;;;;;1.92;1.65;;;19.00;39.00;;;16.75;44.26;100851.53;8245141;28;20042;-82
2022/04/25 16:09:21;;;;;;;2.20;1.30;;;18.90;39.00;;;16.87;44.10;100891.09;8244576;28;20046;-81
2022/04/25 16:13:23;;;;;;;1.92;1.60;;;18.90;39.00;;;16.58;44.25;100855.50;8252560;28;20060;-81
2022/04/25 16:17:24;;;;;;;2.78;2.47;;;18.80;39.10;;;16.53;44.35;100857.66;8238034;28;20467;-80
2022/04/25 16:21:26;;;;;;;1.85;1.50;;;18.60;39.10;;;16.66;44.55;100888.31;8233117;28;20514;-80
2022/04/25 16:25:27;;;;;;;2.10;1.90;;;18.70;39.10;;;16.35;44.49;100853.81;8233558;28;20049;-80
2022/04/25 16:29:29;;;;;;;1.67;1.58;;;18.60;39.20;;;16.49;44.38;100890.47;8236348;28;20489;-80
2022/04/25 16:33:31;;;;;;;1.50;1.40;;;18.80;39.20;;;16.27;44.33;100856.19;8254042;28;20046;-80
2022/04/25 16:37:32;;;;;;;3.25;1.98;;;18.80;39.20;;;16.25;44.28;100871.28;8228801;28;20042;-79
2022/04/25 16:41:35;;;;;;;1.73;1.17;;;18.50;39.00;;;16.17;44.22;100871.03;8228769;28;20057;-80
2022/04/25 16:45:37;;;;;;;1.75;1.60;;;18.40;39.00;;;16.31;44.30;100902.41;8229309;28;20042;-80
2022/04/25 16:49:39;;;;;;;1.92;1.70;;;18.40;39.10;;;15.97;44.43;100856.75;8204969;28;20044;-80
2022/04/25 16:53:40;;;;;;;1.90;1.80;;;18.10;39.00;;;16.18;44.38;100910.44;8225012;28;20046;-80
2022/04/25 16:57:42;;;;;;;2.97;1.27;;;18.20;38.90;;;16.10;44.18;100897.84;8220707;28;20090;-80
2022/04/25 17:01:43;;;;;;;1.95;1.35;;;18.20;39.40;;;16.02;44.34;100891.50;8221968;28;20039;-80
2022/04/25 17:05:45;;;;;;;1.20;1.10;;;18.10;39.00;;;16.10;44.11;100904.91;8215891;28;20459;-80
2022/04/25 17:09:46;;;;;;;1.10;0.95;;;18.10;39.10;;;16.09;44.25;100913.75;8224763;28;20924;-80
2022/04/25 17:13:48;;;;;;;1.42;1.33;;;18.00;39.00;;;15.92;44.61;100893.97;8220646;28;20038;-80
2022/04/25 17:17:50;;;;;;;1.30;1.20;;;18.00;39.10;;;16.04;44.38;100918.53;8220914;28;20038;-80
2022/04/25 17:21:52;;;;;;;1.60;1.50;;;17.90;39.10;;;15.85;44.49;100893.59;8224062;28;20034;-80
2022/04/25 17:25:53;;;;;;;1.63;1.15;;;18.00;39.20;;;16.01;44.38;100924.88;8210545;28;20494;-79
2022/04/25 17:29:55;;;;;;;1.35;1.25;;;18.00;39.20;;;15.98;44.45;100924.25;8233084;28;20122;-80
